createdAt,value
2017-08-01T00:00:11.299Z,5.47
2017-08-01T00:02:39.565Z,5.77
2017-08-01T00:05:07.048Z,5.60
2017-08-01T00:07:34.541Z,5.30
2017-08-01T00:10:02.016Z,5.03
2017-08-01T00:12:29.515Z,4.63
2017-08-01T00:14:56.998Z,5.20
2017-08-01T00:17:24.500Z,5.53
2017-08-01T00:19:51.980Z,4.90
2017-08-01T00:22:19.469Z,5.30
2017-08-01T00:24:46.980Z,5.10
2017-08-01T00:27:14.476Z,5.77
2017-08-01T00:29:41.975Z,5.50
2017-08-01T00:32:09.487Z,4.63
2017-08-01T00:34:36.991Z,5.00
2017-08-01T00:37:04.472Z,4.63
2017-08-01T00:39:31.987Z,5.27
2017-08-01T00:41:59.502Z,4.83
2017-08-01T00:44:27.004Z,4.80
2017-08-01T00:46:54.501Z,5.30
2017-08-01T00:49:21.992Z,4.27
2017-08-01T00:51:49.503Z,5.07
2017-08-01T00:54:17.002Z,4.10
2017-08-01T00:56:44.507Z,5.00
2017-08-01T00:59:12.770Z,5.03
2017-08-01T01:01:40.340Z,4.40
2017-08-01T01:04:08.688Z,4.87
2017-08-01T01:06:36.182Z,5.00
2017-08-01T01:09:03.687Z,5.17
2017-08-01T01:11:31.170Z,5.90
2017-08-01T01:13:58.676Z,5.37
2017-08-01T01:16:26.154Z,4.90
2017-08-01T01:18:53.652Z,5.33
2017-08-01T01:21:21.153Z,5.03
2017-08-01T01:23:48.648Z,4.47
2017-08-01T01:26:16.192Z,4.63
2017-08-01T01:28:43.671Z,2.53
2017-08-01T01:31:11.164Z,2.37
2017-08-01T01:33:38.647Z,2.67
2017-08-01T01:36:06.646Z,2.00
2017-08-01T01:38:34.139Z,2.57
2017-08-01T01:41:01.640Z,3.13
2017-08-01T01:43:29.124Z,2.13
2017-08-01T01:45:56.623Z,1.50
2017-08-01T01:48:24.095Z,1.77
2017-08-01T01:50:51.596Z,1.60
2017-08-01T01:53:19.092Z,1.47
2017-08-01T01:55:46.591Z,1.00
2017-08-01T01:58:14.063Z,1.00
2017-08-01T02:00:41.572Z,1.13
2017-08-01T02:03:09.063Z,1.03
2017-08-01T02:05:36.571Z,1.50
2017-08-01T02:08:04.054Z,1.70
2017-08-01T02:10:31.567Z,1.27
2017-08-01T02:12:59.046Z,1.50
2017-08-01T02:15:26.560Z,1.30
2017-08-01T02:17:54.039Z,1.43
2017-08-01T02:20:21.551Z,0.70
2017-08-01T02:22:49.032Z,1.43
2017-08-01T02:25:17.284Z,0.77
2017-08-01T02:27:44.778Z,1.00
2017-08-01T02:30:12.256Z,1.10
2017-08-01T02:32:39.760Z,1.10
2017-08-01T02:35:07.230Z,1.00
2017-08-01T02:37:34.727Z,1.13
2017-08-01T02:40:02.204Z,1.40
2017-08-01T02:42:29.699Z,1.37
2017-08-01T02:44:57.951Z,1.13
2017-08-01T02:47:25.459Z,1.30
2017-08-01T02:49:52.974Z,1.30
2017-08-01T02:52:20.473Z,1.37
2017-08-01T02:54:47.974Z,1.63
2017-08-01T02:57:15.484Z,1.10
2017-08-01T02:59:42.963Z,1.37
2017-08-01T03:02:10.469Z,1.33
2017-08-01T03:04:37.953Z,1.00
2017-08-01T03:07:05.449Z,0.83
2017-08-01T03:09:32.954Z,0.90
2017-08-01T03:12:00.460Z,1.10
2017-08-01T03:14:27.944Z,1.07
2017-08-01T03:16:55.439Z,0.97
2017-08-01T03:19:22.927Z,1.60
2017-08-01T03:21:50.428Z,1.83
2017-08-01T03:24:17.912Z,1.23
2017-08-01T03:26:45.395Z,1.10
2017-08-01T03:29:12.882Z,1.40
2017-08-01T03:31:40.388Z,1.27
2017-08-01T03:34:07.895Z,1.37
2017-08-01T03:36:35.389Z,1.00
2017-08-01T03:39:02.887Z,1.30
2017-08-01T03:41:31.131Z,1.20
2017-08-01T03:43:58.640Z,1.13
2017-08-01T03:46:26.191Z,1.20
2017-08-01T03:48:53.696Z,1.33
2017-08-01T03:51:21.175Z,1.43
2017-08-01T03:53:48.692Z,1.23
2017-08-01T03:56:16.194Z,1.23
2017-08-01T03:58:43.693Z,1.80
2017-08-01T04:01:11.312Z,1.57
2017-08-01T04:03:39.068Z,1.70
2017-08-01T04:06:07.619Z,1.60
2017-08-01T04:08:35.231Z,1.60
2017-08-01T04:11:02.763Z,1.13
2017-08-01T04:13:30.278Z,1.10
2017-08-01T04:15:57.839Z,1.57
2017-08-01T04:18:25.402Z,1.53
2017-08-01T04:20:53.004Z,1.10
2017-08-01T04:23:20.560Z,1.30
2017-08-01T04:25:48.071Z,1.50
2017-08-01T04:28:15.597Z,1.23
2017-08-01T04:30:43.138Z,1.57
2017-08-01T04:33:10.632Z,1.50
2017-08-01T04:35:38.164Z,1.43
2017-08-01T04:38:05.749Z,1.20
2017-08-01T04:40:33.295Z,1.70
2017-08-01T04:43:00.775Z,1.03
2017-08-01T04:45:28.339Z,1.50
2017-08-01T04:47:55.836Z,1.60
2017-08-01T04:50:24.115Z,1.30
2017-08-01T04:52:51.612Z,1.07
2017-08-01T04:55:19.337Z,1.70
2017-08-01T04:57:46.910Z,1.20
2017-08-01T05:00:14.420Z,1.50
2017-08-01T05:02:41.903Z,1.37
2017-08-01T05:05:09.413Z,1.57
2017-08-01T05:07:36.910Z,1.63
2017-08-01T05:10:04.545Z,1.23
2017-08-01T05:12:32.045Z,1.80
2017-08-01T05:14:59.546Z,1.73
2017-08-01T05:17:27.023Z,1.60
2017-08-01T05:19:54.572Z,1.40
2017-08-01T05:22:22.084Z,1.37
2017-08-01T05:24:49.657Z,0.90
2017-08-01T05:27:17.172Z,2.10
2017-08-01T05:29:44.677Z,1.50
2017-08-01T05:32:12.182Z,1.37
2017-08-01T05:34:39.651Z,1.50
2017-08-01T05:37:07.189Z,1.23
2017-08-01T05:39:34.696Z,1.43
2017-08-01T05:42:02.211Z,1.70
2017-08-01T05:44:29.702Z,2.20
2017-08-01T05:46:57.265Z,1.90
2017-08-01T05:49:24.746Z,3.60
2017-08-01T05:51:52.280Z,1.80
2017-08-01T05:54:19.795Z,2.10
2017-08-01T05:56:47.316Z,1.73
2017-08-01T05:59:14.909Z,2.00
2017-08-01T06:01:42.446Z,2.00
2017-08-01T06:04:10.716Z,2.17
2017-08-01T06:06:38.233Z,2.10
2017-08-01T06:09:05.760Z,1.80
2017-08-01T06:11:33.286Z,2.40
2017-08-01T06:14:00.820Z,8.40
2017-08-01T06:16:28.638Z,3.23
2017-08-01T06:18:56.277Z,2.63
2017-08-01T06:21:24.543Z,2.80
2017-08-01T06:23:52.806Z,5.20
2017-08-01T06:26:21.513Z,6.50
2017-08-01T06:28:49.063Z,2.30
2017-08-01T06:31:16.629Z,2.13
2017-08-01T06:33:44.137Z,2.20
2017-08-01T06:36:11.796Z,2.00
2017-08-01T06:38:39.313Z,2.63
2017-08-01T06:41:06.828Z,2.40
2017-08-01T06:43:35.121Z,1.97
2017-08-01T06:46:02.940Z,1.97
2017-08-01T06:48:31.216Z,2.27
2017-08-01T06:50:58.711Z,2.03
2017-08-01T06:53:26.202Z,2.23
2017-08-01T06:55:53.698Z,6.10
2017-08-01T06:58:21.257Z,11.17
2017-08-01T07:00:48.740Z,4.20
2017-08-01T07:03:16.256Z,2.27
2017-08-01T07:05:44.518Z,2.17
2017-08-01T07:08:12.043Z,2.10
2017-08-01T07:10:39.529Z,2.10
2017-08-01T07:13:07.062Z,2.47
2017-08-01T07:15:34.561Z,2.13
2017-08-01T07:18:02.086Z,3.70
2017-08-01T07:20:29.570Z,2.20
2017-08-01T07:22:57.074Z,2.53
2017-08-01T07:25:24.560Z,2.10
2017-08-01T07:27:52.842Z,2.03
2017-08-01T07:30:20.337Z,2.47
2017-08-01T07:32:47.839Z,1.93
2017-08-01T07:35:15.352Z,1.97
2017-08-01T07:37:42.853Z,2.47
2017-08-01T07:40:10.369Z,3.10
2017-08-01T07:42:37.851Z,2.80
2017-08-01T07:45:05.351Z,2.30
2017-08-01T07:47:32.826Z,2.63
2017-08-01T07:50:00.327Z,2.37
2017-08-01T07:52:27.803Z,2.30
2017-08-01T07:54:55.308Z,3.20
2017-08-01T07:57:22.783Z,2.77
2017-08-01T07:59:50.283Z,2.70
2017-08-01T08:02:17.780Z,3.90
2017-08-01T08:04:45.297Z,4.03
2017-08-01T08:07:12.781Z,3.43
2017-08-01T08:09:40.279Z,3.40
2017-08-01T08:12:07.765Z,3.03
2017-08-01T08:14:35.271Z,3.07
2017-08-01T08:17:02.773Z,3.87
2017-08-01T08:19:30.270Z,3.90
2017-08-01T08:21:57.760Z,4.30
2017-08-01T08:24:25.247Z,3.70
2017-08-01T08:26:52.724Z,4.03
2017-08-01T08:29:20.257Z,3.80
2017-08-01T08:31:47.797Z,4.00
2017-08-01T08:34:15.269Z,3.20
2017-08-01T08:36:43.546Z,3.70
2017-08-01T08:39:11.064Z,3.33
2017-08-01T08:41:39.327Z,3.50
2017-08-01T08:44:07.567Z,3.37
2017-08-01T08:46:35.063Z,3.07
2017-08-01T08:49:02.556Z,3.50
2017-08-01T08:51:30.058Z,2.83
2017-08-01T08:53:57.552Z,2.40
2017-08-01T08:56:25.058Z,3.30
2017-08-01T08:58:52.544Z,2.67
2017-08-01T09:01:20.044Z,2.23
2017-08-01T09:03:47.520Z,2.67
2017-08-01T09:06:15.022Z,2.70
2017-08-01T09:08:42.507Z,2.57
2017-08-01T09:11:10.775Z,2.63
2017-08-01T09:13:39.039Z,2.37
2017-08-01T09:16:06.548Z,2.77
2017-08-01T09:18:34.031Z,3.00
2017-08-01T09:21:01.537Z,3.30
2017-08-01T09:23:29.018Z,2.70
2017-08-01T09:25:56.521Z,3.13
2017-08-01T09:28:23.999Z,3.00
2017-08-01T09:30:51.496Z,2.70
2017-08-01T09:33:18.972Z,2.77
2017-08-01T09:35:47.217Z,2.73
2017-08-01T09:38:14.724Z,2.43
2017-08-01T09:40:42.199Z,3.10
2017-08-01T09:43:09.703Z,3.37
2017-08-01T09:45:37.189Z,2.97
2017-08-01T09:48:04.696Z,2.60
2017-08-01T09:50:32.173Z,2.80
2017-08-01T09:53:00.444Z,2.67
2017-08-01T09:55:28.695Z,3.20
2017-08-01T09:57:56.195Z,3.37
2017-08-01T10:00:23.671Z,4.00
2017-08-01T10:02:51.183Z,2.80
2017-08-01T10:05:18.681Z,3.03
2017-08-01T10:07:46.242Z,3.60
2017-08-01T10:10:13.812Z,3.27
2017-08-01T10:12:41.315Z,3.67
2017-08-01T10:15:08.791Z,3.20
2017-08-01T10:17:36.298Z,2.53
2017-08-01T10:20:04.544Z,2.50
2017-08-01T10:22:32.811Z,2.50
2017-08-01T10:25:01.060Z,2.90
2017-08-01T10:27:28.563Z,2.80
2017-08-01T10:29:56.045Z,2.70
2017-08-01T10:32:23.545Z,2.60
2017-08-01T10:34:51.031Z,2.60
2017-08-01T10:37:18.520Z,2.80
2017-08-01T10:39:46.019Z,2.80
2017-08-01T10:42:14.261Z,3.07
2017-08-01T10:44:41.763Z,3.23
2017-08-01T10:47:09.253Z,3.10
2017-08-01T10:49:36.751Z,3.10
2017-08-01T10:52:04.229Z,2.87
2017-08-01T10:54:31.723Z,2.87
2017-08-01T10:56:59.206Z,2.60
2017-08-01T10:59:26.707Z,2.90
2017-08-01T11:01:54.190Z,3.10
2017-08-01T11:04:21.693Z,3.00
2017-08-01T11:06:49.167Z,2.90
2017-08-01T11:09:16.659Z,3.40
2017-08-01T11:11:44.908Z,3.03
2017-08-01T11:14:12.413Z,2.67
2017-08-01T11:16:39.891Z,3.40
2017-08-01T11:19:08.152Z,2.90
2017-08-01T11:21:36.408Z,2.90
2017-08-01T11:24:04.667Z,3.70
2017-08-01T11:26:32.916Z,3.00
2017-08-01T11:29:00.407Z,3.30
2017-08-01T11:31:27.882Z,2.90
2017-08-01T11:33:55.352Z,3.90
2017-08-01T11:36:23.623Z,3.23
2017-08-01T11:38:51.867Z,3.43
2017-08-01T11:41:19.368Z,2.70
2017-08-01T11:43:46.842Z,3.30
2017-08-01T11:46:14.665Z,3.40
2017-08-01T11:48:42.157Z,3.30
2017-08-01T11:51:10.416Z,3.00
2017-08-01T11:53:37.890Z,3.53
2017-08-01T11:56:05.388Z,3.30
2017-08-01T11:58:33.717Z,3.40
2017-08-01T12:01:01.212Z,3.73
2017-08-01T12:03:29.464Z,3.83
2017-08-01T12:05:56.972Z,2.93
2017-08-01T12:08:24.697Z,3.10
2017-08-01T12:10:52.190Z,3.40
2017-08-01T12:13:20.436Z,3.27
2017-08-01T12:15:47.956Z,2.40
2017-08-01T12:18:15.439Z,3.40
2017-08-01T12:20:43.717Z,2.80
2017-08-01T12:23:11.204Z,2.33
2017-08-01T12:25:38.728Z,2.00
2017-08-01T12:28:06.216Z,2.47
2017-08-01T12:30:33.716Z,2.97
2017-08-01T12:33:01.197Z,2.53
2017-08-01T12:35:28.703Z,2.60
2017-08-01T12:37:56.183Z,2.80
2017-08-01T12:40:23.675Z,15.20
2017-08-01T12:42:51.174Z,4.03
2017-08-01T12:45:18.663Z,3.07
2017-08-01T12:47:46.163Z,2.50
2017-08-01T12:50:14.412Z,3.70
2017-08-01T12:52:41.908Z,2.30
2017-08-01T12:55:09.398Z,2.47
2017-08-01T12:57:36.903Z,2.30
2017-08-01T13:00:04.388Z,2.60
2017-08-01T13:02:31.897Z,1.93
2017-08-01T13:04:59.480Z,2.73
2017-08-01T13:07:26.987Z,2.73
2017-08-01T13:09:54.468Z,2.93
2017-08-01T13:12:22.730Z,2.47
2017-08-01T13:14:50.999Z,2.20
2017-08-01T13:17:18.499Z,11.47
2017-08-01T13:19:46.128Z,3.27
2017-08-01T13:22:13.619Z,3.50
2017-08-01T13:24:41.104Z,2.23
2017-08-01T13:27:08.599Z,2.93
2017-08-01T13:29:36.847Z,2.90
2017-08-01T13:32:04.351Z,2.83
2017-08-01T13:34:31.836Z,2.50
2017-08-01T13:36:59.320Z,3.13
2017-08-01T13:39:26.835Z,2.87
2017-08-01T13:41:55.147Z,2.70
2017-08-01T13:44:22.640Z,3.30
2017-08-01T13:46:50.892Z,2.90
2017-08-01T13:49:19.160Z,3.40
2017-08-01T13:51:46.652Z,3.37
2017-08-01T13:54:14.173Z,3.20
2017-08-01T13:56:41.676Z,3.40
2017-08-01T13:59:09.173Z,3.50
2017-08-01T14:01:36.672Z,3.70
2017-08-01T14:04:04.258Z,3.43
2017-08-01T14:06:31.771Z,3.43
2017-08-01T14:08:59.296Z,2.93
2017-08-01T14:11:27.552Z,4.40
2017-08-01T14:13:55.091Z,3.77
2017-08-01T14:16:22.575Z,3.47
2017-08-01T14:18:50.071Z,3.60
2017-08-01T14:21:17.552Z,3.90
2017-08-01T14:23:45.057Z,3.50
2017-08-01T14:26:12.539Z,3.40
2017-08-01T14:28:40.032Z,4.07
2017-08-01T14:31:07.515Z,3.30
2017-08-01T14:33:35.041Z,3.13
2017-08-01T14:36:02.587Z,3.20
2017-08-01T14:38:30.093Z,3.10
2017-08-01T14:40:57.644Z,2.83
2017-08-01T14:43:25.128Z,2.50
2017-08-01T14:45:52.639Z,2.63
2017-08-01T14:48:20.135Z,3.63
2017-08-01T14:50:47.675Z,3.20
2017-08-01T14:53:15.173Z,3.00
2017-08-01T14:55:42.683Z,3.47
2017-08-01T14:58:10.159Z,3.50
2017-08-01T15:00:37.662Z,2.50
2017-08-01T15:03:05.144Z,3.47
2017-08-01T15:05:32.656Z,2.90
2017-08-01T15:08:00.162Z,3.07
2017-08-01T15:10:27.702Z,2.80
2017-08-01T15:12:55.212Z,2.83
2017-08-01T15:15:22.718Z,3.50
2017-08-01T15:17:50.195Z,3.03
2017-08-01T15:20:17.701Z,3.20
2017-08-01T15:22:45.478Z,3.30
2017-08-01T15:25:13.012Z,2.67
2017-08-01T15:27:40.520Z,3.23
2017-08-01T15:30:09.092Z,3.20
2017-08-01T15:32:36.588Z,2.80
2017-08-01T15:35:04.120Z,3.60
2017-08-01T15:37:33.342Z,3.03
2017-08-01T15:40:00.856Z,3.10
2017-08-01T15:42:28.368Z,2.97
2017-08-01T15:44:55.846Z,2.90
2017-08-01T15:47:23.385Z,3.00
2017-08-01T15:49:50.876Z,2.70
2017-08-01T15:52:18.391Z,3.40
2017-08-01T15:54:45.910Z,2.90
2017-08-01T15:57:13.416Z,5.87
2017-08-01T15:59:40.904Z,6.10
2017-08-01T16:02:08.483Z,6.47
2017-08-01T16:04:35.972Z,3.67
2017-08-01T16:07:03.475Z,4.17
2017-08-01T16:09:30.952Z,3.90
2017-08-01T16:11:58.452Z,3.97
2017-08-01T16:14:25.928Z,3.70
2017-08-01T16:16:53.429Z,3.97
2017-08-01T16:19:20.919Z,4.30
2017-08-01T16:21:48.429Z,4.50
2017-08-01T16:24:15.925Z,4.83
2017-08-01T16:26:43.486Z,4.10
2017-08-01T16:29:11.003Z,4.27
2017-08-01T16:31:38.534Z,3.57
2017-08-01T16:34:06.032Z,4.27
2017-08-01T16:36:33.580Z,5.13
2017-08-01T16:39:01.071Z,3.10
2017-08-01T16:41:28.562Z,4.37
2017-08-01T16:43:56.096Z,3.83
2017-08-01T16:46:23.586Z,3.53
2017-08-01T16:48:51.099Z,4.40
2017-08-01T16:51:18.597Z,25.27
2017-08-01T16:53:46.254Z,12.30
2017-08-01T16:56:14.532Z,5.20
2017-08-01T16:58:42.041Z,5.07
2017-08-01T17:01:09.557Z,4.60
2017-08-01T17:03:37.097Z,4.33
2017-08-01T17:06:04.614Z,5.03
2017-08-01T17:08:32.144Z,4.83
2017-08-01T17:10:59.658Z,5.20
2017-08-01T17:13:27.197Z,4.70
2017-08-01T17:15:54.703Z,4.60
2017-08-01T17:18:22.297Z,4.40
2017-08-01T17:20:49.800Z,4.57
2017-08-01T17:23:17.343Z,6.00
2017-08-01T17:25:44.945Z,5.10
2017-08-01T17:28:12.530Z,4.33
2017-08-01T17:30:40.034Z,4.00
2017-08-01T17:33:07.576Z,4.20
2017-08-01T17:35:35.076Z,4.60
2017-08-01T17:38:02.598Z,4.87
2017-08-01T17:40:30.115Z,14.67
2017-08-01T17:42:57.630Z,16.70
2017-08-01T17:45:25.183Z,4.93
2017-08-01T17:47:52.684Z,5.30
2017-08-01T17:50:20.200Z,4.07
2017-08-01T17:52:47.689Z,4.33
2017-08-01T17:55:15.207Z,4.87
2017-08-01T17:57:42.717Z,5.27
2017-08-01T18:00:10.240Z,5.20
2017-08-01T18:02:37.719Z,5.90
2017-08-01T18:05:05.291Z,5.60
2017-08-01T18:07:32.838Z,5.93
2017-08-01T18:10:00.344Z,5.40
2017-08-01T18:12:27.871Z,10.40
2017-08-01T18:14:55.396Z,5.33
2017-08-01T18:17:23.640Z,4.87
2017-08-01T18:19:51.912Z,5.57
2017-08-01T18:22:20.191Z,5.50
2017-08-01T18:24:47.726Z,5.03
2017-08-01T18:27:15.282Z,5.27
2017-08-01T18:29:42.792Z,5.23
2017-08-01T18:32:10.282Z,5.43
2017-08-01T18:34:37.800Z,5.10
2017-08-01T18:37:05.299Z,4.30
2017-08-01T18:39:32.836Z,5.67
2017-08-01T18:42:00.336Z,4.73
2017-08-01T18:44:27.873Z,5.23
2017-08-01T18:46:55.392Z,5.30
2017-08-01T18:49:23.635Z,4.80
2017-08-01T18:51:51.166Z,5.30
2017-08-01T18:54:18.665Z,5.87
2017-08-01T18:56:46.213Z,6.07
2017-08-01T18:59:14.193Z,7.33
2017-08-01T19:01:41.968Z,22.10
2017-08-01T19:04:09.463Z,24.03
2017-08-01T19:06:37.022Z,6.50
2017-08-01T19:09:04.813Z,4.60
2017-08-01T19:11:33.521Z,6.57
2017-08-01T19:14:01.380Z,6.07
2017-08-01T19:16:28.987Z,6.73
2017-08-01T19:18:56.517Z,5.80
2017-08-01T19:21:24.889Z,5.50
2017-08-01T19:23:52.427Z,5.70
2017-08-01T19:26:20.042Z,5.37
2017-08-01T19:28:48.455Z,7.07
2017-08-01T19:31:16.101Z,5.57
2017-08-01T19:33:43.888Z,5.50
2017-08-01T19:36:11.436Z,4.80
2017-08-01T19:38:38.928Z,4.90
2017-08-01T19:41:06.456Z,4.20
2017-08-01T19:43:33.952Z,3.93
2017-08-01T19:46:01.433Z,4.63
2017-08-01T19:48:28.928Z,5.67
2017-08-01T19:50:56.414Z,5.60
2017-08-01T19:53:23.931Z,4.70
2017-08-01T19:55:51.412Z,5.47
2017-08-01T19:58:18.919Z,4.73
2017-08-01T20:00:46.393Z,4.80
2017-08-01T20:03:13.895Z,4.70
2017-08-01T20:05:41.379Z,4.43
2017-08-01T20:08:08.886Z,4.20
2017-08-01T20:10:36.366Z,5.73
2017-08-01T20:13:03.877Z,4.87
2017-08-01T20:15:31.357Z,4.63
2017-08-01T20:17:58.865Z,4.63
2017-08-01T20:20:26.352Z,4.23
2017-08-01T20:22:54.793Z,4.80
2017-08-01T20:25:23.067Z,5.13
2017-08-01T20:27:50.566Z,4.83
2017-08-01T20:30:18.050Z,5.30
2017-08-01T20:32:45.597Z,5.83
2017-08-01T20:35:13.083Z,5.33
2017-08-01T20:37:41.453Z,5.33
2017-08-01T20:40:08.973Z,4.83
2017-08-01T20:42:36.543Z,5.13
2017-08-01T20:45:04.023Z,4.80
2017-08-01T20:47:31.504Z,5.10
2017-08-01T20:49:59.008Z,4.67
2017-08-01T20:52:26.518Z,4.60
2017-08-01T20:54:54.012Z,5.00
2017-08-01T20:57:22.258Z,4.40
2017-08-01T20:59:49.768Z,5.20
2017-08-01T21:02:17.264Z,5.93
2017-08-01T21:04:45.536Z,5.20
2017-08-01T21:07:13.016Z,4.80
2017-08-01T21:09:40.515Z,4.87
2017-08-01T21:12:07.991Z,5.20
2017-08-01T21:14:35.499Z,4.80
2017-08-01T21:17:02.977Z,4.40
2017-08-01T21:19:30.479Z,13.03
2017-08-01T21:21:58.727Z,19.70
2017-08-01T21:24:27.011Z,7.07
2017-08-01T21:26:54.492Z,5.73
2017-08-01T21:29:22.000Z,5.57
2017-08-01T21:31:49.483Z,5.33
2017-08-01T21:34:16.981Z,4.87
2017-08-01T21:36:44.473Z,4.93
2017-08-01T21:39:11.980Z,5.20
2017-08-01T21:41:39.472Z,5.20
2017-08-01T21:44:06.976Z,5.93
2017-08-01T21:46:34.455Z,6.13
2017-08-01T21:49:01.940Z,6.27
2017-08-01T21:51:29.435Z,5.40
2017-08-01T21:53:56.913Z,6.30
2017-08-01T21:56:24.429Z,5.40
2017-08-01T21:58:52.685Z,6.10
2017-08-01T22:01:20.195Z,6.17
2017-08-01T22:03:47.731Z,6.00
2017-08-01T22:06:15.279Z,5.73
2017-08-01T22:08:42.757Z,6.70
2017-08-01T22:11:10.264Z,5.10
2017-08-01T22:13:37.747Z,5.27
2017-08-01T22:16:05.249Z,5.60
2017-08-01T22:18:32.732Z,5.50
2017-08-01T22:21:00.233Z,5.50
2017-08-01T22:23:27.708Z,6.73
2017-08-01T22:25:55.208Z,5.17
2017-08-01T22:28:22.685Z,6.17
2017-08-01T22:30:50.309Z,6.50
2017-08-01T22:33:17.783Z,5.47
2017-08-01T22:35:45.302Z,5.10
2017-08-01T22:38:12.787Z,4.80
2017-08-01T22:40:41.055Z,5.03
2017-08-01T22:43:08.528Z,6.10
2017-08-01T22:45:36.031Z,4.47
2017-08-01T22:48:03.511Z,5.30
2017-08-01T22:50:31.016Z,5.00
2017-08-01T22:52:59.260Z,5.73
2017-08-01T22:55:26.732Z,5.70
2017-08-01T22:57:54.237Z,4.77
2017-08-01T23:00:21.720Z,4.97
2017-08-01T23:02:49.237Z,5.47
2017-08-01T23:05:17.484Z,5.30
2017-08-01T23:07:44.980Z,5.10
2017-08-01T23:10:12.461Z,5.00
2017-08-01T23:12:39.951Z,5.10
2017-08-01T23:15:07.420Z,5.60
2017-08-01T23:17:34.911Z,5.33
2017-08-01T23:20:03.167Z,4.90
2017-08-01T23:22:31.432Z,5.47
2017-08-01T23:24:59.676Z,5.27
2017-08-01T23:27:27.175Z,5.40
2017-08-01T23:29:54.657Z,5.20
2017-08-01T23:32:22.169Z,5.40
2017-08-01T23:34:49.660Z,5.20
2017-08-01T23:37:17.927Z,5.63
2017-08-01T23:39:45.440Z,5.83
2017-08-01T23:42:12.931Z,6.60
2017-08-01T23:44:40.411Z,5.10
2017-08-01T23:47:07.907Z,5.23
2017-08-01T23:49:35.383Z,5.43
2017-08-01T23:52:02.879Z,6.07
2017-08-01T23:54:31.123Z,5.27
2017-08-01T23:56:58.624Z,5.87
2017-08-01T23:59:26.103Z,5.40
